Time,TemperatureF,DewpointF,PressureIn,WindDirection,WindDirectionDegrees,WindSpeedMPH,WindSpeedGustMPH,Humidity,HourlyPrecipIn,Conditions,Clouds,dailyrainin,SoftwareType,DateUTC
2013-10-25 00:02:00,39.0,38.2,29.83,SSW,202,4.0,12.0,97,0.00,,,0.00,Weather View 32 v70,2013-10-25 04:02:00,
2013-10-25 00:30:00,37.0,37.0,29.83,West,270,3.0,12.0,100,0.00,,,0.00,Weather View 32 v70,2013-10-25 04:30:00,
2013-10-25 00:31:00,37.0,37.0,29.83,West,270,3.0,12.0,100,0.00,,,0.00,Weather View 32 v70,2013-10-25 04:31:00,
2013-10-25 01:02:00,36.0,35.7,29.85,WNW,292,4.0,8.0,99,0.00,,,0.00,Weather View 32 v70,2013-10-25 05:02:00,
2013-10-25 01:30:00,36.0,35.7,29.85,NW,315,2.0,8.0,99,0.00,,,0.00,Weather View 32 v70,2013-10-25 05:30:00,
2013-10-25 01:32:00,36.0,35.7,29.85,NW,315,2.0,8.0,99,0.00,,,0.00,Weather View 32 v70,2013-10-25 05:32:00,
2013-10-25 02:03:00,35.0,34.2,29.86,WNW,292,4.0,8.0,97,0.00,,,0.00,Weather View 32 v70,2013-10-25 06:03:00,
2013-10-25 02:30:00,34.0,32.2,29.87,West,270,4.0,8.0,93,0.00,,,0.00,Weather View 32 v70,2013-10-25 06:30:00,
2013-10-25 02:33:00,34.0,32.2,29.87,West,270,4.0,8.0,93,0.00,,,0.00,Weather View 32 v70,2013-10-25 06:33:00,
2013-10-25 03:05:00,34.0,30.0,29.88,WNW,292,3.0,6.0,85,0.00,,,0.00,Weather View 32 v70,2013-10-25 07:05:00,
2013-10-25 03:30:00,34.0,31.1,29.88,West,270,2.0,8.0,89,0.00,,,0.00,Weather View 32 v70,2013-10-25 07:30:00,
2013-10-25 03:32:00,34.0,31.1,29.88,West,270,2.0,8.0,89,0.00,,,0.00,Weather View 32 v70,2013-10-25 07:32:00,
2013-10-25 04:00:00,34.0,31.9,29.88,West,270,4.0,9.0,92,0.00,,,0.00,Weather View 32 v70,2013-10-25 08:00:00,
2013-10-25 04:30:00,34.0,31.9,29.89,WSW,247,3.0,9.0,92,0.00,,,0.00,Weather View 32 v70,2013-10-25 08:30:00,
2013-10-25 04:31:00,34.0,31.9,29.89,WSW,247,3.0,9.0,92,0.00,,,0.00,Weather View 32 v70,2013-10-25 08:31:00,
2013-10-25 05:01:00,35.0,32.6,29.90,SW,225,6.0,9.0,91,0.00,,,0.00,Weather View 32 v70,2013-10-25 09:01:00,
2013-10-25 05:30:00,33.0,30.1,29.92,WSW,247,4.0,10.0,89,0.00,,,0.00,Weather View 32 v70,2013-10-25 09:30:00,
2013-10-25 05:33:00,33.0,30.1,29.92,WSW,247,4.0,10.0,89,0.00,,,0.00,Weather View 32 v70,2013-10-25 09:33:00,
2013-10-25 06:04:00,33.0,28.1,29.93,SSW,202,2.0,10.0,82,0.00,,,0.00,Weather View 32 v70,2013-10-25 10:04:00,
2013-10-25 06:30:00,34.0,30.8,29.93,SW,225,2.0,10.0,88,0.00,,,0.00,Weather View 32 v70,2013-10-25 10:30:00,
2013-10-25 07:00:00,33.0,27.8,29.94,WSW,247,5.0,10.0,81,0.00,,,0.00,Weather View 32 v70,2013-10-25 11:00:00,
2013-10-25 07:30:00,36.0,34.2,29.95,WSW,247,7.0,10.0,93,0.00,,,0.00,Weather View 32 v70,2013-10-25 11:30:00,
2013-10-25 07:31:00,36.0,34.2,29.95,WSW,247,7.0,10.0,93,0.00,,,0.00,Weather View 32 v70,2013-10-25 11:31:00,
2013-10-25 08:00:00,38.0,37.0,29.96,SW,225,6.0,11.0,96,0.00,,,0.00,Weather View 32 v70,2013-10-25 12:00:00,
2013-10-25 08:31:00,40.0,38.4,29.97,WNW,292,4.0,11.0,94,0.00,,,0.00,Weather View 32 v70,2013-10-25 12:31:00,
2013-10-25 09:01:00,42.0,39.3,29.97,SW,225,11.0,12.0,90,0.00,,,0.00,Weather View 32 v70,2013-10-25 13:01:00,
2013-10-25 09:32:00,43.0,39.4,29.97,WSW,247,7.0,13.0,87,0.00,,,0.00,Weather View 32 v70,2013-10-25 13:32:00,
2013-10-25 10:01:00,45.0,34.7,29.96,WSW,247,7.0,16.0,67,0.00,,,0.00,Weather View 32 v70,2013-10-25 14:01:00,
2013-10-25 10:34:00,46.0,33.7,29.96,WSW,247,7.0,19.0,62,0.00,,,0.00,Weather View 32 v70,2013-10-25 14:34:00,
2013-10-25 11:05:00,46.0,34.1,29.96,NW,315,6.0,19.0,63,0.00,,,0.00,Weather View 32 v70,2013-10-25 15:05:00,
2013-10-25 11:34:00,47.0,33.8,29.95,SW,225,5.0,19.0,60,0.00,,,0.00,Weather View 32 v70,2013-10-25 15:34:00,
2013-10-25 12:01:00,49.0,35.3,29.94,North,360,3.0,19.0,59,0.00,,,0.00,Weather View 32 v70,2013-10-25 16:01:00,
2013-10-25 12:31:00,47.0,33.0,29.93,WSW,247,10.0,19.0,58,0.00,,,0.00,Weather View 32 v70,2013-10-25 16:31:00,
2013-10-25 13:00:00,49.0,33.0,29.93,WNW,292,5.0,20.0,54,0.00,,,0.00,Weather View 32 v70,2013-10-25 17:00:00,
2013-10-25 13:01:00,49.0,33.0,29.93,WNW,292,5.0,20.0,54,0.00,,,0.00,Weather View 32 v70,2013-10-25 17:01:00,
2013-10-25 13:30:00,50.0,32.6,29.92,WSW,247,6.0,20.0,51,0.00,,,0.00,Weather View 32 v70,2013-10-25 17:30:00,
2013-10-25 13:31:00,50.0,32.6,29.92,WSW,247,6.0,20.0,51,0.00,,,0.00,Weather View 32 v70,2013-10-25 17:31:00,
2013-10-25 14:30:00,49.0,32.6,29.91,WSW,247,6.0,18.0,53,0.00,,,0.00,Weather View 32 v70,2013-10-25 18:30:00,
2013-10-25 14:31:00,49.0,32.6,29.91,WSW,247,6.0,18.0,53,0.00,,,0.00,Weather View 32 v70,2013-10-25 18:31:00,
2013-10-25 15:34:00,47.0,33.0,29.94,West,270,4.0,13.0,58,0.00,,,0.00,Weather View 32 v70,2013-10-25 19:34:00,
2013-10-25 16:00:00,47.0,32.5,29.94,WSW,247,4.0,13.0,57,0.00,,,0.00,Weather View 32 v70,2013-10-25 20:00:00,
2013-10-25 16:01:00,47.0,32.5,29.94,WSW,247,4.0,13.0,57,0.00,,,0.00,Weather View 32 v70,2013-10-25 20:01:00,
2013-10-25 16:31:00,47.0,31.2,29.94,WNW,292,7.0,14.0,54,0.00,,,0.00,Weather View 32 v70,2013-10-25 20:31:00,
2013-10-25 17:00:00,46.0,31.2,29.96,NW,315,7.0,15.0,56,0.00,,,0.00,Weather View 32 v70,2013-10-25 21:00:00,
2013-10-25 17:02:00,46.0,31.2,29.96,NW,315,7.0,15.0,56,0.00,,,0.00,Weather View 32 v70,2013-10-25 21:02:00,
2013-10-25 17:34:00,46.0,31.6,29.98,WSW,247,2.0,15.0,57,0.00,,,0.00,Weather View 32 v70,2013-10-25 21:34:00,
2013-10-25 18:00:00,45.0,31.5,29.99,WNW,292,8.0,13.0,59,0.00,,,0.00,Weather View 32 v70,2013-10-25 22:00:00,
2013-10-25 18:30:00,44.0,31.4,30.01,WNW,292,2.0,13.0,61,0.00,,,0.00,Weather View 32 v70,2013-10-25 22:30:00,
2013-10-25 19:00:00,42.0,30.3,30.03,WNW,292,6.0,13.0,63,0.00,,,0.00,Weather View 32 v70,2013-10-25 23:00:00,
2013-10-25 19:02:00,42.0,30.3,30.03,WNW,292,6.0,13.0,63,0.00,,,0.00,Weather View 32 v70,2013-10-25 23:02:00,
2013-10-25 19:34:00,41.0,30.5,30.04,WSW,247,6.0,13.0,66,0.00,,,0.00,Weather View 32 v70,2013-10-25 23:34:00,
2013-10-25 20:00:00,40.0,32.7,30.07,NW,315,4.0,13.0,75,0.00,,,0.00,Weather View 32 v70,2013-10-26 00:00:00,
2013-10-25 20:32:00,39.0,34.0,30.08,WNW,292,6.0,12.0,82,0.00,,,0.00,Weather View 32 v70,2013-10-26 00:32:00,
2013-10-25 21:04:00,38.0,33.3,30.09,WNW,292,3.0,13.0,83,0.00,,,0.00,Weather View 32 v70,2013-10-26 01:04:00,
2013-10-25 21:35:00,37.0,32.3,30.10,SW,225,2.0,13.0,83,0.00,,,0.00,Weather View 32 v70,2013-10-26 01:35:00,
2013-10-25 22:01:00,36.0,33.3,30.12,NW,315,5.0,12.0,90,0.00,,,0.00,Weather View 32 v70,2013-10-26 02:01:00,
2013-10-25 22:30:00,35.0,34.0,30.12,WNW,292,3.0,10.0,96,0.00,,,0.00,Weather View 32 v70,2013-10-26 02:30:00,
2013-10-25 22:36:00,35.0,34.0,30.12,WNW,292,3.0,10.0,96,0.00,,,0.00,Weather View 32 v70,2013-10-26 02:36:00,
2013-10-25 23:02:00,33.0,33.0,30.13,NW,315,4.0,7.0,100,0.00,,,0.00,Weather View 32 v70,2013-10-26 03:02:00,
2013-10-25 23:30:00,32.0,32.0,30.13,WNW,292,5.0,7.0,100,0.00,,,0.00,Weather View 32 v70,2013-10-26 03:30:00,
2013-10-25 23:33:00,32.0,32.0,30.13,WNW,292,5.0,7.0,100,0.00,,,0.00,Weather View 32 v70,2013-10-26 03:33:00,